Hillsdale, New York
Current Conditions -  °F | °C
As of 10:04 AM on Saturday 25 Oct 2014 (Local Time) from KPSF Reporting Station
Scattered Clouds Scattered Clouds  
Wind Chill: 44°   Ceiling: Unl
Heat Index: 48°   Visibility: 8mi
Dew Point: 42°   Wind: 9mph
Humidity: 80%   Direction: 310°NW
Pressure: 29.79"   Gusts: NA
Location:  42.18°N, 73.52°W
Report Text: KPSF 251404Z AUTO 31008KT 8SM SCT013 09/06 A2979 RMK AO2 T00890056
Loading
Personal Weather Stations






























Interactive Weather Map
Tropical Storm Tracking
New forecast layout! Learn more

10-Day Weather Forecast

Advertisements
Track Severe Weather on mobile